Time;durP1;ratioP1;P1;durP2;ratioP2;P2;SDS_P1;SDS_P2;PMS_P1;PMS_P2;Temp;Humidity;BMP_temperature;BMP_pressure;BME280_temperature;BME280_humidity;BME280_pressure;Samples;Min_cycle;Max_cycle;Signal;HPM_P1;HPM_P2
2021/12/09 00:02:23;;;;;;;4.70;1.77;;;8.30;99.90;;;;;;5082874;28;20216;-69
2021/12/09 00:04:57;;;;;;;4.20;1.90;;;8.30;99.90;;;;;;5081001;28;20701;-70
2021/12/09 00:07:29;;;;;;;3.72;1.65;;;8.30;99.90;;;;;;5088053;28;20307;-69
2021/12/09 00:10:05;;;;;;;6.53;2.17;;;8.10;99.90;;;;;;5079526;28;20755;-70
2021/12/09 00:12:38;;;;;;;3.90;1.55;;;8.00;99.90;;;;;;5076992;28;20212;-71
2021/12/09 00:15:10;;;;;;;5.03;1.90;;;8.10;99.90;;;;;;5081376;28;20325;-70
2021/12/09 00:17:43;;;;;;;6.20;2.17;;;8.20;99.90;;;;;;5076487;28;20674;-70
2021/12/09 00:20:15;;;;;;;2.72;2.05;;;8.10;99.90;;;;;;5078215;28;20256;-71
2021/12/09 00:22:47;;;;;;;2.72;1.63;;;8.00;99.90;;;;;;5085820;28;20677;-70
2021/12/09 00:25:18;;;;;;;5.22;2.25;;;7.90;99.90;;;;;;5084409;28;20309;-71
2021/12/09 00:27:51;;;;;;;4.85;1.75;;;7.90;99.90;;;;;;5078550;28;20599;-71
2021/12/09 00:30:23;;;;;;;2.13;1.23;;;7.80;99.90;;;;;;5080995;28;20224;-71
2021/12/09 00:32:57;;;;;;;5.35;1.60;;;7.60;99.90;;;;;;5070642;28;20208;-71
2021/12/09 00:35:33;;;;;;;3.20;1.13;;;7.60;99.90;;;;;;5083369;28;20262;-70
2021/12/09 00:38:07;;;;;;;3.67;1.60;;;7.50;99.90;;;;;;5074096;28;20380;-71
2021/12/09 00:40:38;;;;;;;2.75;1.42;;;7.50;99.90;;;;;;5081090;28;20503;-71
2021/12/09 00:43:11;;;;;;;2.75;1.52;;;7.60;99.90;;;;;;5085084;28;20675;-69
2021/12/09 00:45:49;;;;;;;3.17;1.70;;;7.60;99.90;;;;;;5081668;28;20658;-70
2021/12/09 00:48:22;;;;;;;3.13;1.55;;;7.40;99.90;;;;;;5074559;28;20327;-70
2021/12/09 00:50:53;;;;;;;2.95;1.30;;;7.50;99.90;;;;;;5081820;28;20225;-70
2021/12/09 00:53:24;;;;;;;3.40;1.38;;;7.40;99.90;;;;;;5068615;28;20235;-70
2021/12/09 00:55:55;;;;;;;2.55;1.60;;;7.20;99.90;;;;;;5078362;28;20215;-71
2021/12/09 00:58:26;;;;;;;3.53;1.60;;;7.20;99.90;;;;;;5088015;28;20213;-69
2021/12/09 01:00:57;;;;;;;3.60;1.90;;;7.10;99.90;;;;;;5079977;28;20216;-71
2021/12/09 01:03:30;;;;;;;6.18;1.90;;;7.00;99.90;;;;;;5077375;28;20212;-71
2021/12/09 01:06:02;;;;;;;5.10;2.17;;;7.00;99.90;;;;;;5080971;28;20265;-71
2021/12/09 01:08:48;;;;;;;4.10;1.65;;;6.90;99.90;;;;;;5087863;28;20221;-71
2021/12/09 01:11:20;;;;;;;3.13;2.15;;;6.70;99.90;;;;;;5076695;28;20213;-70
2021/12/09 01:13:51;;;;;;;3.95;1.83;;;6.70;99.90;;;;;;5079554;28;20217;-71
2021/12/09 01:16:22;;;;;;;5.30;2.50;;;6.70;99.90;;;;;;5074311;28;20228;-71
2021/12/09 01:18:55;;;;;;;6.30;3.10;;;6.80;99.90;;;;;;5081082;28;20212;-71
2021/12/09 01:21:26;;;;;;;4.03;3.30;;;6.80;99.90;;;;;;5076660;28;20243;-70
2021/12/09 01:23:58;;;;;;;230.38;48.63;;;6.70;99.90;;;;;;5077722;28;20236;-75
2021/12/09 01:26:29;;;;;;;7.05;3.70;;;6.70;99.90;;;;;;5065857;28;20209;-71
2021/12/09 01:29:04;;;;;;;5.63;3.47;;;6.70;99.90;;;;;;5067955;28;20250;-71
2021/12/09 01:31:39;;;;;;;5.20;3.50;;;6.70;99.90;;;;;;5085550;28;20221;-73
2021/12/09 01:34:15;;;;;;;3.95;2.78;;;6.70;99.90;;;;;;5076775;28;20239;-75
2021/12/09 01:36:48;;;;;;;7.15;4.68;;;6.70;99.90;;;;;;5070188;28;20236;-71
2021/12/09 01:39:20;;;;;;;2.95;2.63;;;6.70;99.90;;;;;;5077961;28;20208;-73
2021/12/09 01:41:51;;;;;;;5.75;3.80;;;6.70;99.90;;;;;;5071350;28;20251;-75
2021/12/09 01:44:23;;;;;;;3.40;3.00;;;6.60;99.90;;;;;;5080225;28;20825;-73
2021/12/09 01:46:56;;;;;;;3.03;2.83;;;6.40;99.90;;;;;;5075570;28;20209;-73
2021/12/09 01:49:29;;;;;;;4.63;3.33;;;6.40;99.90;;;;;;5079411;28;20224;-74
2021/12/09 01:52:00;;;;;;;5.85;2.65;;;6.30;99.90;;;;;;5080015;28;20216;-73
2021/12/09 01:54:35;;;;;;;4.32;2.65;;;6.20;99.90;;;;;;5065540;28;20223;-74
2021/12/09 01:59:52;;;;;;;504.95;88.75;;;6.20;99.90;;;;;;5082936;28;20219;-73
2021/12/09 02:02:39;;;;;;;8.32;3.85;;;6.20;99.90;;;;;;5079939;28;20216;-72
2021/12/09 02:06:07;;;;;;;4.30;3.60;;;6.30;99.90;;;;;;5076806;28;20704;-74
2021/12/09 02:08:40;;;;;;;5.03;3.40;;;6.10;99.90;;;;;;5074921;28;20228;-71
2021/12/09 02:11:32;;;;;;;8.07;3.72;;;6.10;99.90;;;;;;5070893;28;20538;-75
2021/12/09 02:33:15;;;;;;;9.82;5.38;;;5.70;99.90;;;;;;5043526;28;20212;-70
2021/12/09 02:35:59;;;;;;;6.68;4.90;;;5.60;99.90;;;;;;5074556;28;20224;-73
2021/12/09 02:38:32;;;;;;;8.48;5.63;;;5.70;99.90;;;;;;5083760;28;20267;-69
2021/12/09 02:41:05;;;;;;;8.90;5.45;;;5.60;99.90;;;;;;5085337;28;20216;-70
2021/12/09 02:43:36;;;;;;;5.57;4.70;;;5.60;99.90;;;;;;5083183;28;20594;-72
2021/12/09 02:46:07;;;;;;;8.70;5.78;;;5.60;99.90;;;;;;5074845;28;20762;-69
2021/12/09 02:48:38;;;;;;;9.05;5.70;;;5.60;99.90;;;;;;5082188;28;20220;-74
2021/12/09 02:54:34;;;;;;;8.27;5.95;;;5.40;99.90;;;;;;5060976;28;20664;-78
2021/12/09 02:57:24;;;;;;;11.85;9.15;;;5.40;99.90;;;;;;5083002;28;20262;-75
2021/12/09 03:00:00;;;;;;;24.70;8.82;;;5.20;99.90;;;;;;5077888;28;20228;-75
2021/12/09 03:02:33;;;;;;;7.68;6.18;;;5.30;99.90;;;;;;5077580;28;20223;-71
2021/12/09 03:05:05;;;;;;;10.15;6.40;;;5.30;99.90;;;;;;5083589;28;20228;-69
2021/12/09 03:07:41;;;;;;;8.07;6.25;;;5.30;99.90;;;;;;5088258;28;20251;-69
2021/12/09 04:09:03;;;;;;;9.80;7.03;;;4.40;99.90;;;;;;5076484;28;20304;-75
2021/12/09 04:11:50;;;;;;;409.67;77.47;;;4.40;99.90;;;;;;5079150;28;20229;-74
2021/12/09 04:26:39;;;;;;;11.43;7.90;;;4.30;99.90;;;;;;5035904;28;20292;-80
2021/12/09 04:29:14;;;;;;;11.32;6.45;;;4.30;99.90;;;;;;5073896;28;20225;-78
2021/12/09 04:31:47;;;;;;;12.70;7.55;;;4.20;99.90;;;;;;5086269;28;20224;-73
2021/12/09 04:34:19;;;;;;;10.73;6.88;;;4.20;99.90;;;;;;5074197;28;20213;-73
2021/12/09 04:49:56;;;;;;;27.33;12.15;;;4.20;99.90;;;;;;5001307;28;20307;-79
2021/12/09 05:09:18;;;;;;;16.48;14.60;;;4.00;99.90;;;;;;5026748;27;20401;-71
2021/12/09 05:12:16;;;;;;;16.33;13.95;;;3.90;99.90;;;;;;5111703;27;20318;-75
2021/12/09 05:14:47;;;;;;;13.27;11.90;;;3.90;99.90;;;;;;5112362;27;20220;-72
2021/12/09 05:17:19;;;;;;;13.25;11.88;;;3.70;99.90;;;;;;5107049;27;20278;-72
2021/12/09 05:19:52;;;;;;;16.85;13.20;;;3.70;99.90;;;;;;5110439;27;20661;-72
2021/12/09 05:22:24;;;;;;;17.35;12.55;;;3.70;99.90;;;;;;5120063;27;20226;-72
2021/12/09 05:24:57;;;;;;;17.05;13.50;;;3.70;99.90;;;;;;5096802;27;20282;-72
2021/12/09 05:27:53;;;;;;;;;;;;;;;;;;;;;
2021/12/09 05:34:34;;;;;;;;;;;;;;;;;;;;;
2021/12/09 05:40:21;;;;;;;18.67;14.77;;;3.60;99.90;;;;;;5059595;28;20221;-74
2021/12/09 05:43:06;;;;;;;15.05;13.35;;;3.60;99.90;;;;;;5068010;28;20219;-72
2021/12/09 05:45:52;;;;;;;15.77;12.82;;;3.60;99.90;;;;;;5073277;28;20324;-73
2021/12/09 05:48:39;;;;;;;15.50;13.52;;;3.50;99.90;;;;;;5065152;28;20213;-73
2021/12/09 05:51:12;;;;;;;15.70;14.00;;;3.50;99.90;;;;;;5058531;28;20303;-72
2021/12/09 05:53:43;;;;;;;19.20;14.32;;;3.40;99.90;;;;;;5069542;28;20224;-71
2021/12/09 05:56:15;;;;;;;15.73;13.38;;;3.40;99.90;;;;;;5058465;28;20210;-72
2021/12/09 05:58:47;;;;;;;15.93;13.32;;;3.50;99.90;;;;;;5059340;28;20373;-71
2021/12/09 06:01:18;;;;;;;17.00;13.77;;;3.50;99.90;;;;;;5073843;28;20635;-72
2021/12/09 06:03:49;;;;;;;17.02;13.90;;;3.60;99.90;;;;;;5066315;28;20223;-72
2021/12/09 06:06:20;;;;;;;14.98;13.57;;;3.60;99.90;;;;;;5107116;28;20223;-73
2021/12/09 06:08:51;;;;;;;18.95;13.57;;;3.70;99.90;;;;;;5108958;27;20245;-73
2021/12/09 06:11:23;;;;;;;14.50;12.05;;;3.70;99.90;;;;;;5122655;27;20212;-73
2021/12/09 06:13:54;;;;;;;16.35;12.35;;;3.80;99.90;;;;;;5107816;27;20218;-73
2021/12/09 06:16:26;;;;;;;13.93;12.50;;;3.90;99.90;;;;;;5116947;27;20389;-73
2021/12/09 06:18:57;;;;;;;13.60;12.27;;;3.90;99.90;;;;;;5107310;27;20230;-74
2021/12/09 06:21:28;;;;;;;15.55;12.77;;;3.90;99.90;;;;;;5111461;27;20565;-73
2021/12/09 06:24:00;;;;;;;14.82;13.30;;;3.90;99.90;;;;;;5108130;28;20223;-72
2021/12/09 06:26:33;;;;;;;22.20;15.00;;;4.00;99.90;;;;;;5110287;28;20231;-73
2021/12/09 06:29:07;;;;;;;15.07;13.48;;;4.10;99.90;;;;;;5106994;27;20243;-73
2021/12/09 06:31:38;;;;;;;15.05;13.45;;;4.10;99.90;;;;;;5104668;28;20603;-73
2021/12/09 06:34:11;;;;;;;16.45;14.63;;;4.10;99.90;;;;;;5114049;28;20484;-72
2021/12/09 06:36:44;;;;;;;17.50;13.57;;;4.20;99.90;;;;;;5099318;28;20266;-73
2021/12/09 06:39:15;;;;;;;18.90;14.70;;;4.30;99.90;;;;;;5112094;28;20211;-72
2021/12/09 06:41:48;;;;;;;15.02;12.73;;;4.40;99.90;;;;;;5092727;28;20254;-73
2021/12/09 06:44:18;;;;;;;18.13;13.55;;;4.40;99.90;;;;;;5123569;28;20221;-72
2021/12/09 06:46:50;;;;;;;15.40;11.93;;;4.40;99.90;;;;;;5094182;28;20698;-72
2021/12/09 06:49:21;;;;;;;18.80;12.80;;;4.40;99.90;;;;;;5091348;28;20300;-72
2021/12/09 06:51:52;;;;;;;15.98;12.65;;;4.40;99.90;;;;;;5104808;28;20219;-71
2021/12/09 06:54:23;;;;;;;13.75;12.35;;;4.40;99.90;;;;;;5115738;28;20214;-71
2021/12/09 06:56:55;;;;;;;14.45;12.93;;;4.30;99.90;;;;;;5094524;28;20208;-71
2021/12/09 06:59:26;;;;;;;15.25;11.75;;;4.30;99.90;;;;;;5110298;28;20219;-75
2021/12/09 07:01:57;;;;;;;13.95;12.15;;;4.30;99.90;;;;;;5109843;28;20219;-72
2021/12/09 07:04:29;;;;;;;14.90;12.57;;;4.40;99.90;;;;;;5105990;28;20212;-71
2021/12/09 07:07:00;;;;;;;20.90;11.43;;;4.40;99.90;;;;;;5108989;27;20230;-71
2021/12/09 07:09:31;;;;;;;13.52;11.65;;;4.50;99.90;;;;;;5117316;28;20259;-72
2021/12/09 07:12:03;;;;;;;12.57;11.32;;;4.50;99.90;;;;;;5119446;28;20680;-72
2021/12/09 07:14:35;;;;;;;14.32;11.63;;;4.50;99.90;;;;;;5118147;28;20218;-72
2021/12/09 07:17:06;;;;;;;13.18;11.70;;;4.50;99.90;;;;;;5104880;28;20203;-72
2021/12/09 07:19:36;;;;;;;12.68;11.38;;;4.60;99.90;;;;;;5105306;28;20219;-72
2021/12/09 07:22:07;;;;;;;11.30;10.20;;;4.50;99.90;;;;;;5102424;28;20596;-72
2021/12/09 07:24:38;;;;;;;12.02;10.40;;;4.40;99.90;;;;;;5107168;28;20249;-71
2021/12/09 07:27:11;;;;;;;13.55;12.23;;;4.50;99.90;;;;;;5112684;28;20224;-71
2021/12/09 07:29:43;;;;;;;12.00;10.48;;;4.50;99.90;;;;;;5105282;28;20219;-71
2021/12/09 07:32:14;;;;;;;13.73;11.35;;;4.50;99.90;;;;;;5104992;28;20265;-72
2021/12/09 07:34:45;;;;;;;16.38;10.77;;;4.50;99.90;;;;;;5115534;28;20214;-72
2021/12/09 07:37:16;;;;;;;16.73;12.10;;;4.50;99.90;;;;;;5108707;28;20294;-72
2021/12/09 07:39:46;;;;;;;13.10;11.80;;;4.60;99.90;;;;;;5109212;28;20227;-72
2021/12/09 07:42:19;;;;;;;13.43;12.13;;;4.60;99.90;;;;;;5104570;27;20583;-72
2021/12/09 07:44:50;;;;;;;12.90;11.43;;;4.70;99.90;;;;;;5110380;27;20213;-72
2021/12/09 07:47:21;;;;;;;12.40;11.30;;;4.70;99.90;;;;;;5107913;27;20596;-72
2021/12/09 07:49:52;;;;;;;12.27;10.30;;;4.70;99.90;;;;;;5109738;27;20214;-71
2021/12/09 07:52:22;;;;;;;11.90;10.20;;;4.70;99.90;;;;;;5105521;27;20227;-72
2021/12/09 07:54:53;;;;;;;14.85;11.73;;;4.70;99.90;;;;;;5114390;27;20291;-69
2021/12/09 07:57:26;;;;;;;13.40;11.75;;;4.70;99.90;;;;;;5116269;27;20211;-70
2021/12/09 07:59:57;;;;;;;12.02;10.70;;;4.70;99.90;;;;;;5113454;27;20223;-67
2021/12/09 08:02:28;;;;;;;13.40;11.60;;;4.70;99.90;;;;;;5100433;27;20215;-72
2021/12/09 08:04:59;;;;;;;12.48;9.93;;;4.70;99.90;;;;;;5118635;27;20218;-71
2021/12/09 08:07:30;;;;;;;12.18;10.15;;;4.80;99.90;;;;;;5108379;27;20224;-71
2021/12/09 08:10:01;;;;;;;11.35;9.88;;;4.90;99.90;;;;;;5110609;27;20226;-71
2021/12/09 08:12:33;;;;;;;12.40;9.88;;;5.00;99.90;;;;;;5101395;27;20222;-70
2021/12/09 08:15:24;;;;;;;13.93;10.70;;;5.00;99.90;;;;;;5112465;27;20214;-70
2021/12/09 08:18:14;;;;;;;11.70;9.20;;;5.00;99.90;;;;;;5090800;28;20255;-71
2021/12/09 08:20:45;;;;;;;13.02;9.25;;;4.90;99.90;;;;;;5109667;27;20225;-71
2021/12/09 08:23:16;;;;;;;11.27;9.82;;;5.00;99.90;;;;;;5126596;27;20299;-71
2021/12/09 08:25:48;;;;;;;10.13;8.20;;;5.00;99.90;;;;;;5116897;27;20215;-71
2021/12/09 08:28:21;;;;;;;9.90;8.95;;;5.10;99.90;;;;;;5129962;27;20223;-72
2021/12/09 08:30:52;;;;;;;12.13;8.27;;;5.20;99.90;;;;;;5118937;27;20216;-71
2021/12/09 08:33:25;;;;;;;13.18;8.77;;;5.20;99.90;;;;;;5125223;27;20211;-71
2021/12/09 08:35:56;;;;;;;11.48;7.63;;;5.20;99.90;;;;;;5123009;27;20326;-71
2021/12/09 08:38:27;;;;;;;9.13;7.85;;;5.30;99.90;;;;;;5121515;27;20211;-71
2021/12/09 08:40:58;;;;;;;13.77;8.55;;;5.20;99.90;;;;;;5103770;27;20223;-70
2021/12/09 08:43:31;;;;;;;10.05;8.63;;;5.10;99.90;;;;;;5104430;27;20215;-70
2021/12/09 08:46:03;;;;;;;8.85;7.30;;;5.10;99.90;;;;;;5104088;28;20217;-70
2021/12/09 08:48:33;;;;;;;8.57;7.38;;;5.20;99.90;;;;;;5106195;27;20582;-71
2021/12/09 08:51:05;;;;;;;8.27;7.05;;;5.20;99.90;;;;;;5119891;27;20223;-70
2021/12/09 08:53:36;;;;;;;8.23;7.20;;;5.20;99.90;;;;;;5114925;27;20251;-70
2021/12/09 08:56:07;;;;;;;13.20;8.00;;;5.10;99.90;;;;;;5109312;27;20228;-71
2021/12/09 08:58:40;;;;;;;8.95;6.05;;;5.20;99.90;;;;;;5100461;27;20273;-70
2021/12/09 09:01:12;;;;;;;6.68;5.38;;;5.20;99.90;;;;;;5120946;27;20912;-70
2021/12/09 09:03:43;;;;;;;9.45;5.85;;;5.20;99.90;;;;;;5106522;27;20673;-71
2021/12/09 09:06:14;;;;;;;7.32;5.88;;;5.30;99.90;;;;;;5113154;27;20224;-70
2021/12/09 09:08:45;;;;;;;7.90;5.80;;;5.30;99.90;;;;;;5119861;27;20304;-71
2021/12/09 09:11:16;;;;;;;10.10;5.78;;;5.30;99.90;;;;;;5102016;28;20226;-70
2021/12/09 09:13:48;;;;;;;15.50;6.05;;;5.20;99.90;;;;;;5106597;27;20224;-71
2021/12/09 09:16:20;;;;;;;8.18;5.72;;;5.10;99.90;;;;;;5100087;28;20208;-71
2021/12/09 09:18:53;;;;;;;10.10;5.95;;;5.10;99.90;;;;;;5108344;27;20539;-71
2021/12/09 09:21:25;;;;;;;8.20;5.68;;;5.10;99.90;;;;;;5119397;27;20215;-69
2021/12/09 09:23:56;;;;;;;11.80;6.20;;;5.00;99.90;;;;;;5114138;27;20222;-70
2021/12/09 09:26:29;;;;;;;5.75;5.15;;;5.10;99.90;;;;;;5106458;27;20281;-70
2021/12/09 09:29:02;;;;;;;12.75;5.57;;;5.20;99.90;;;;;;5109856;27;20243;-71
2021/12/09 09:31:33;;;;;;;5.90;5.30;;;5.20;99.90;;;;;;5115026;27;20221;-70
2021/12/09 09:34:08;;;;;;;10.38;5.18;;;5.10;99.90;;;;;;5122553;27;20661;-70
2021/12/09 09:36:44;;;;;;;5.70;4.60;;;5.20;99.90;;;;;;5101666;27;20256;-71
2021/12/09 09:39:21;;;;;;;10.00;5.03;;;5.10;99.90;;;;;;5107866;27;20203;-71
2021/12/09 09:41:59;;;;;;;5.57;4.97;;;5.20;99.90;;;;;;5130242;27;20214;-71
2021/12/09 09:44:44;;;;;;;9.85;3.50;;;5.00;99.90;;;;;;5109767;27;20230;-71
2021/12/09 09:47:16;;;;;;;6.60;3.53;;;5.00;99.90;;;;;;5107834;27;20222;-71
2021/12/09 09:49:47;;;;;;;5.57;4.00;;;5.10;99.90;;;;;;5100008;27;20534;-71
2021/12/09 09:52:18;;;;;;;7.95;3.42;;;5.10;99.90;;;;;;5105104;27;20654;-70
2021/12/09 09:54:50;;;;;;;6.07;4.38;;;5.00;99.90;;;;;;5101882;27;20220;-70
2021/12/09 09:57:21;;;;;;;5.80;3.00;;;4.80;99.90;;;;;;5107389;27;20220;-71
2021/12/09 09:59:54;;;;;;;3.88;3.45;;;4.70;99.90;;;;;;5108653;27;20559;-71
2021/12/09 10:02:25;;;;;;;5.03;3.42;;;4.70;99.90;;;;;;5118098;27;20225;-71
2021/12/09 10:05:01;;;;;;;4.20;3.80;;;4.80;99.90;;;;;;5112934;27;20303;-70
2021/12/09 10:07:33;;;;;;;7.45;3.60;;;4.60;99.90;;;;;;5116410;27;20261;-71
2021/12/09 10:10:08;;;;;;;5.53;3.45;;;4.60;99.90;;;;;;5107405;28;20230;-71
2021/12/09 10:12:56;;;;;;;5.35;3.35;;;4.50;99.90;;;;;;5095285;28;20219;-71
2021/12/09 10:15:55;;;;;;;7.60;3.58;;;4.50;99.90;;;;;;5107137;27;20636;-71
2021/12/09 10:18:39;;;;;;;6.22;4.68;;;4.50;99.90;;;;;;5050487;28;20640;-71
2021/12/09 10:21:11;;;;;;;8.63;4.47;;;4.50;99.90;;;;;;5099671;28;20219;-70
2021/12/09 10:23:46;;;;;;;4.85;3.80;;;4.40;99.90;;;;;;5115362;27;20291;-71
2021/12/09 10:26:23;;;;;;;8.73;3.88;;;4.40;99.90;;;;;;5112805;27;20215;-71
2021/12/09 10:29:03;;;;;;;9.02;4.57;;;4.40;99.90;;;;;;5108930;28;20235;-70
2021/12/09 10:31:42;;;;;;;6.72;3.90;;;4.30;99.90;;;;;;5114109;28;20280;-70
2021/12/09 10:34:27;;;;;;;3.83;3.47;;;4.20;99.90;;;;;;5108621;28;20306;-69
2021/12/09 10:37:06;;;;;;;5.43;3.85;;;4.20;99.90;;;;;;5096754;28;20216;-70
2021/12/09 10:39:46;;;;;;;5.70;3.70;;;4.20;99.90;;;;;;5108391;28;20700;-70
2021/12/09 10:42:22;;;;;;;7.68;3.90;;;4.20;99.90;;;;;;5118622;28;20613;-70
2021/12/09 10:45:00;;;;;;;5.95;4.45;;;4.30;99.90;;;;;;5103890;28;20262;-70
2021/12/09 10:47:48;;;;;;;6.68;3.90;;;4.30;99.90;;;;;;5107156;28;20646;-70
2021/12/09 10:50:29;;;;;;;4.43;3.75;;;4.30;99.90;;;;;;5103014;28;20220;-70
2021/12/09 10:53:17;;;;;;;9.48;4.03;;;4.30;99.90;;;;;;5093206;28;20212;-70
2021/12/09 10:55:49;;;;;;;3.85;3.50;;;4.30;99.90;;;;;;5118168;28;20211;-70
2021/12/09 10:58:22;;;;;;;5.13;4.03;;;4.30;99.90;;;;;;5119541;28;20219;-70
2021/12/09 11:00:56;;;;;;;8.45;4.10;;;4.30;99.90;;;;;;5116065;28;20212;-71
2021/12/09 11:03:31;;;;;;;5.00;3.53;;;4.30;99.90;;;;;;5112589;28;20223;-70
2021/12/09 11:06:06;;;;;;;6.10;3.55;;;4.30;99.90;;;;;;5114977;28;20212;-70
2021/12/09 11:08:38;;;;;;;3.45;2.85;;;4.30;99.90;;;;;;5112232;28;20262;-70
2021/12/09 11:11:12;;;;;;;8.05;4.18;;;4.30;99.90;;;;;;5117313;28;20528;-69
2021/12/09 11:13:50;;;;;;;5.05;4.00;;;4.40;99.90;;;;;;5101291;28;20228;-70
2021/12/09 11:16:24;;;;;;;3.90;2.95;;;4.40;99.90;;;;;;5123084;27;20222;-70
2021/12/09 11:19:05;;;;;;;3.78;2.90;;;4.40;99.90;;;;;;5110944;27;20323;-70
2021/12/09 11:21:41;;;;;;;4.22;3.03;;;4.50;99.90;;;;;;5119123;27;20223;-70
2021/12/09 11:24:14;;;;;;;5.63;3.90;;;4.50;99.90;;;;;;5121195;27;20214;-69
2021/12/09 11:26:54;;;;;;;5.25;3.20;;;4.60;99.90;;;;;;5109208;27;20342;-69
2021/12/09 11:29:28;;;;;;;8.48;3.88;;;4.60;99.90;;;;;;5115251;27;20853;-70
2021/12/09 11:32:06;;;;;;;5.05;2.75;;;4.70;99.90;;;;;;5114978;27;20218;-70
2021/12/09 11:34:45;;;;;;;5.53;4.18;;;4.70;99.90;;;;;;5118783;27;20581;-70
2021/12/09 11:37:41;;;;;;;6.60;3.35;;;4.70;99.90;;;;;;5120668;27;20250;-70
2021/12/09 11:40:23;;;;;;;6.00;3.25;;;4.70;99.90;;;;;;5119000;27;20211;-69
2021/12/09 11:43:00;;;;;;;3.75;2.40;;;4.70;99.90;;;;;;5114803;27;20221;-70
2021/12/09 11:45:33;;;;;;;5.70;3.60;;;4.80;99.90;;;;;;5114563;27;20207;-70
2021/12/09 11:48:06;;;;;;;4.82;2.70;;;4.80;99.90;;;;;;5098483;28;20219;-70
2021/12/09 11:50:41;;;;;;;7.60;3.05;;;4.70;99.90;;;;;;5107222;27;20307;-70
2021/12/09 11:53:14;;;;;;;4.05;3.28;;;4.70;99.90;;;;;;5110112;28;20215;-70
2021/12/09 11:55:50;;;;;;;5.28;3.30;;;4.70;99.90;;;;;;5095198;27;20237;-70
2021/12/09 11:58:25;;;;;;;3.20;2.90;;;4.80;99.90;;;;;;5114114;27;20207;-70
2021/12/09 12:07:30;;;;;;;4.38;3.72;;;4.80;99.90;;;;;;5112194;27;20245;-70
2021/12/09 12:13:00;;;;;;;6.28;3.65;;;4.80;99.90;;;;;;5115591;27;20232;-69
2021/12/09 12:15:52;;;;;;;5.53;3.30;;;4.80;99.90;;;;;;5100280;28;20227;-70
2021/12/09 12:18:44;;;;;;;5.32;3.50;;;4.80;99.90;;;;;;5112457;27;20580;-69
2021/12/09 12:31:09;;;;;;;7.53;3.22;;;4.80;99.90;;;;;;5070393;27;20231;-70
2021/12/09 12:34:09;;;;;;;4.35;3.00;;;4.80;99.90;;;;;;5116451;27;20237;-70
2021/12/09 12:40:10;;;;;;;6.28;3.40;;;4.70;99.90;;;;;;5093279;27;20244;-70
2021/12/09 12:42:52;;;;;;;4.22;3.60;;;4.60;99.90;;;;;;5118541;27;20660;-70
2021/12/09 12:51:30;;;;;;;6.82;3.22;;;4.70;99.90;;;;;;5113627;27;20565;-70
2021/12/09 12:54:07;;;;;;;5.32;2.65;;;4.70;99.90;;;;;;5115923;27;20208;-70
2021/12/09 12:56:45;;;;;;;3.15;2.85;;;4.70;99.90;;;;;;5118523;27;20215;-70
2021/12/09 12:59:28;;;;;;;9.48;3.50;;;4.70;99.90;;;;;;5104898;27;20591;-70
2021/12/09 13:05:20;;;;;;;4.50;2.78;;;4.80;99.90;;;;;;5102449;27;20211;-70
2021/12/09 13:11:04;;;;;;;3.80;2.53;;;5.00;99.90;;;;;;5072538;28;20246;-70
2021/12/09 13:13:45;;;;;;;3.65;2.60;;;5.00;99.90;;;;;;5111635;27;20337;-70
2021/12/09 13:16:21;;;;;;;3.67;2.90;;;5.00;99.90;;;;;;5104396;27;20222;-69
2021/12/09 13:19:07;;;;;;;5.03;3.20;;;5.00;99.90;;;;;;5098183;28;20584;-70
2021/12/09 13:21:41;;;;;;;3.15;2.80;;;5.00;99.90;;;;;;5110952;27;20219;-70
2021/12/09 13:24:47;;;;;;;6.63;2.72;;;5.00;99.90;;;;;;5105381;27;20283;-70
2021/12/09 13:27:51;;;;;;;3.47;2.75;;;5.10;99.90;;;;;;5112283;27;20238;-70
2021/12/09 13:30:59;;;;;;;3.45;3.08;;;5.20;99.90;;;;;;5120759;27;20230;-69
2021/12/09 13:36:42;;;;;;;3.53;3.13;;;5.10;99.90;;;;;;5103495;27;20570;-70
2021/12/09 13:39:42;;;;;;;4.97;3.97;;;5.10;99.90;;;;;;5111725;27;20686;-69
2021/12/09 13:47:54;;;;;;;4.50;3.40;;;5.10;99.90;;;;;;5108230;27;20247;-69
2021/12/09 13:50:50;;;;;;;3.70;3.40;;;5.10;99.90;;;;;;5112544;27;20712;-70
2021/12/09 13:56:10;;;;;;;6.82;4.25;;;5.10;99.90;;;;;;5100256;27;20582;-69
2021/12/09 13:58:40;;;;;;;7.05;4.13;;;5.10;99.90;;;;;;5111190;27;20638;-70
2021/12/09 14:01:11;;;;;;;3.88;3.33;;;5.10;99.90;;;;;;5112385;27;20263;-70
2021/12/09 14:03:44;;;;;;;7.10;5.20;;;5.10;99.90;;;;;;5111476;27;20567;-70
2021/12/09 14:06:16;;;;;;;7.28;4.20;;;5.10;99.90;;;;;;5126535;27;21030;-70
2021/12/09 14:08:53;;;;;;;7.28;5.65;;;5.00;99.90;;;;;;5109073;27;20717;-70
2021/12/09 14:11:29;;;;;;;6.28;5.53;;;5.00;99.90;;;;;;5111865;27;20666;-70
2021/12/09 14:14:05;;;;;;;5.88;5.32;;;5.10;99.90;;;;;;5109387;27;20220;-70
2021/12/09 14:16:44;;;;;;;7.53;6.13;;;5.10;99.90;;;;;;5091309;28;20238;-69
2021/12/09 14:22:14;;;;;;;9.23;7.32;;;5.00;99.90;;;;;;5109396;28;20319;-69
2021/12/09 14:24:45;;;;;;;8.15;6.72;;;5.00;99.90;;;;;;5112750;27;20222;-70
2021/12/09 14:27:19;;;;;;;8.32;7.25;;;4.90;99.90;;;;;;5099282;28;20662;-70
2021/12/09 14:29:51;;;;;;;9.05;7.38;;;5.00;99.90;;;;;;5113009;27;20216;-69
2021/12/09 14:32:24;;;;;;;8.15;6.55;;;5.00;99.90;;;;;;5116321;28;20231;-69
2021/12/09 14:34:58;;;;;;;9.68;7.57;;;5.00;99.90;;;;;;5108400;28;20573;-70
2021/12/09 14:37:44;;;;;;;10.02;8.20;;;5.00;99.90;;;;;;5101256;28;20212;-69
2021/12/09 14:40:19;;;;;;;11.73;7.32;;;5.00;99.90;;;;;;5108657;28;20212;-69
2021/12/09 14:42:53;;;;;;;9.57;7.65;;;5.00;99.90;;;;;;5106644;28;20237;-69
2021/12/09 14:45:27;;;;;;;13.20;7.95;;;5.00;99.90;;;;;;5117568;28;20676;-70
2021/12/09 14:48:01;;;;;;;13.35;9.00;;;5.00;99.90;;;;;;5094706;28;20212;-70
2021/12/09 14:50:38;;;;;;;13.55;8.35;;;5.00;99.90;;;;;;5098702;27;20232;-70
2021/12/09 14:53:38;;;;;;;8.75;7.93;;;5.00;99.90;;;;;;5120172;27;20216;-70
2021/12/09 14:56:21;;;;;;;8.27;7.40;;;4.90;99.90;;;;;;5107758;27;20220;-69
2021/12/09 14:58:52;;;;;;;10.65;7.70;;;4.90;99.90;;;;;;5120571;27;20640;-70
2021/12/09 15:01:26;;;;;;;10.50;8.32;;;4.90;99.90;;;;;;5117176;27;20592;-70
2021/12/09 15:04:03;;;;;;;9.80;8.82;;;4.90;99.90;;;;;;5115494;27;20215;-70
2021/12/09 15:06:42;;;;;;;14.10;9.00;;;4.90;99.90;;;;;;5117069;27;20214;-70
2021/12/09 15:09:20;;;;;;;10.68;9.40;;;4.90;99.90;;;;;;5123440;27;20318;-70
2021/12/09 15:11:53;;;;;;;10.23;8.77;;;4.90;99.90;;;;;;5126703;27;20567;-69
2021/12/09 15:14:27;;;;;;;11.07;9.35;;;4.90;99.90;;;;;;5102110;27;20216;-70
2021/12/09 15:17:15;;;;;;;9.50;8.40;;;4.90;99.90;;;;;;5104872;27;20220;-70
2021/12/09 15:20:01;;;;;;;13.05;8.65;;;4.90;99.90;;;;;;5117724;27;20221;-69
2021/12/09 15:22:53;;;;;;;11.20;8.90;;;4.80;99.90;;;;;;5100502;27;20546;-69
2021/12/09 15:25:32;;;;;;;11.23;8.65;;;4.90;99.90;;;;;;5116922;27;20224;-69
2021/12/09 15:28:05;;;;;;;9.18;8.32;;;4.90;99.90;;;;;;5112918;27;20222;-69
2021/12/09 15:30:51;;;;;;;10.57;8.35;;;4.80;99.90;;;;;;5111745;27;20728;-69
2021/12/09 15:33:26;;;;;;;9.20;8.27;;;4.80;99.90;;;;;;5109923;27;20215;-70
2021/12/09 15:36:13;;;;;;;10.50;8.20;;;4.80;99.90;;;;;;5118796;27;20298;-69
2021/12/09 15:38:48;;;;;;;10.50;8.75;;;4.80;99.90;;;;;;5113461;27;20212;-69
2021/12/09 15:41:28;;;;;;;11.00;8.57;;;4.80;99.90;;;;;;5118858;27;20286;-69
2021/12/09 15:44:03;;;;;;;10.13;8.63;;;4.80;99.90;;;;;;5118883;27;20238;-70
2021/12/09 15:46:45;;;;;;;11.50;9.18;;;4.70;99.90;;;;;;5113724;27;20313;-70
2021/12/09 15:49:17;;;;;;;10.07;8.80;;;4.70;99.90;;;;;;5118121;27;20256;-70
2021/12/09 15:51:50;;;;;;;9.27;7.97;;;4.70;99.90;;;;;;5126614;27;20227;-71
2021/12/09 15:54:27;;;;;;;10.10;8.30;;;4.80;99.90;;;;;;5132287;27;20211;-68
2021/12/09 15:57:04;;;;;;;9.88;8.88;;;4.80;99.90;;;;;;5113115;27;20226;-69
2021/12/09 15:59:36;;;;;;;8.80;7.95;;;4.70;99.90;;;;;;5101723;27;20246;-70
2021/12/09 16:02:08;;;;;;;11.65;9.52;;;4.70;99.90;;;;;;5108584;27;20241;-69
2021/12/09 16:04:39;;;;;;;10.40;9.30;;;4.70;99.90;;;;;;5110423;27;20215;-69
2021/12/09 16:07:10;;;;;;;9.95;8.88;;;4.80;99.90;;;;;;5114671;27;20224;-70
2021/12/09 16:09:46;;;;;;;10.63;8.32;;;4.80;99.90;;;;;;5119859;27;20227;-74
2021/12/09 16:12:26;;;;;;;9.32;8.52;;;4.90;99.90;;;;;;5122754;27;20290;-69
2021/12/09 16:14:59;;;;;;;12.57;9.00;;;4.90;99.90;;;;;;5103892;27;20241;-70
2021/12/09 16:17:34;;;;;;;10.65;8.65;;;4.90;99.90;;;;;;5110041;27;20215;-68
2021/12/09 16:20:09;;;;;;;8.85;7.95;;;5.00;99.90;;;;;;5118281;27;20211;-70
2021/12/09 16:22:40;;;;;;;63.25;17.90;;;5.00;99.90;;;;;;5099959;27;20219;-66
2021/12/09 16:25:14;;;;;;;9.65;8.75;;;5.10;99.90;;;;;;5128952;27;20219;-68
2021/12/09 16:27:48;;;;;;;38.20;13.43;;;5.10;99.90;;;;;;5111096;27;20212;-69
2021/12/09 16:30:21;;;;;;;8.65;7.85;;;5.20;99.90;;;;;;5117089;27;20637;-68
2021/12/09 16:32:53;;;;;;;11.82;8.77;;;5.10;99.90;;;;;;5097866;27;20253;-70
2021/12/09 16:35:27;;;;;;;12.65;8.15;;;5.20;99.90;;;;;;5115253;27;20277;-66
2021/12/09 16:37:59;;;;;;;12.88;7.53;;;5.20;99.90;;;;;;5117031;27;20263;-68
2021/12/09 16:40:35;;;;;;;9.45;7.75;;;5.20;99.90;;;;;;5115145;27;20207;-69